Time;durP1;ratioP1;P1;durP2;ratioP2;P2;SDS_P1;SDS_P2;PMS_P1;PMS_P2;Temp;Humidity;BMP_temperature;BMP_pressure;BME280_temperature;BME280_humidity;BME280_pressure;Samples;Min_cycle;Max_cycle;Signal;HPM_P1;HPM_P2
2022/11/05 00:10:50;;;;;;;61.72;31.42;;;;;;;12.29;64.33;94830.97;5072600;28;20036;-76
2022/11/05 00:18:43;;;;;;;59.55;30.23;;;;;;;12.19;65.06;94811.75;5072009;28;20035;-76
2022/11/05 00:25:12;;;;;;;56.67;28.95;;;;;;;12.17;64.66;94805.94;5063152;28;20025;-74
2022/11/05 00:26:38;;;;;;;65.57;31.58;;;;;;;12.19;65.05;94801.13;5067390;28;20060;-74
2022/11/05 00:29:04;;;;;;;61.17;29.63;;;;;;;12.26;64.66;94809.50;5071216;28;20398;-74
2022/11/05 00:31:31;;;;;;;58.85;29.80;;;;;;;12.41;65.26;94859.75;5067241;28;20052;-74
2022/11/05 00:33:57;;;;;;;49.63;28.10;;;;;;;12.28;65.11;94816.09;5057313;28;20036;-74
2022/11/05 00:36:22;;;;;;;54.17;28.33;;;;;;;12.44;65.48;94858.38;5053753;28;20029;-74
2022/11/05 00:38:47;;;;;;;55.38;28.40;;;;;;;12.14;65.45;94817.13;5071011;28;20048;-74
2022/11/05 00:41:13;;;;;;;55.65;30.00;;;;;;;11.98;66.19;94795.34;5071330;28;20111;-74
2022/11/05 00:46:22;;;;;;;51.88;27.92;;;;;;;12.25;66.09;94864.53;5071191;28;20051;-76
2022/11/05 00:51:32;;;;;;;64.70;28.30;;;;;;;12.13;66.21;94831.53;5066029;28;20105;-76
2022/11/05 00:53:57;;;;;;;51.95;28.90;;;;;;;11.59;66.14;94737.25;5052483;28;20032;-77
2022/11/05 00:56:22;;;;;;;56.25;28.67;;;;;;;11.77;65.85;94744.41;5052953;28;20120;-76
2022/11/05 00:58:48;;;;;;;55.00;29.23;;;;;;;12.42;65.72;94828.66;5041875;28;20503;-76
2022/11/05 01:01:13;;;;;;;54.95;27.45;;;;;;;12.01;66.05;94778.03;5033298;28;20040;-77
2022/11/05 01:03:39;;;;;;;53.90;28.25;;;;;;;11.99;65.55;94786.28;5056066;28;20020;-77
2022/11/05 01:06:10;;;;;;;51.63;27.95;;;;;;;12.41;65.66;94835.03;5070700;28;20091;-76
2022/11/05 01:08:36;;;;;;;47.78;27.70;;;;;;;12.13;65.95;94803.06;5070560;28;20391;-76
2022/11/05 01:11:11;;;;;;;57.47;29.98;;;;;;;12.35;66.38;94821.84;5070937;28;20520;-76
2022/11/05 01:13:38;;;;;;;60.28;28.13;;;;;;;12.41;66.16;94817.22;5070247;28;20080;-76
2022/11/05 01:16:09;;;;;;;55.90;29.50;;;;;;;12.29;66.46;94820.31;5070592;28;20039;-76
2022/11/05 01:18:37;;;;;;;48.38;28.27;;;;;;;12.01;66.48;94767.41;5070603;28;20036;-76
2022/11/05 01:21:10;;;;;;;51.88;28.65;;;;;;;12.34;66.42;94814.16;5033593;28;20025;-76
2022/11/05 01:23:36;;;;;;;51.72;28.92;;;;;;;12.29;66.43;94808.91;5073190;28;20478;-76
2022/11/05 01:26:01;;;;;;;59.63;29.80;;;;;;;12.26;66.40;94812.16;5059310;28;20103;-76
2022/11/05 01:28:27;;;;;;;52.72;28.83;;;;;;;12.33;66.07;94805.38;5070451;28;20035;-76
2022/11/05 01:30:54;;;;;;;53.97;29.90;;;;;;;12.36;66.37;94801.31;5045164;28;20068;-76
2022/11/05 01:33:20;;;;;;;52.67;29.38;;;;;;;12.31;65.86;94774.84;5063406;28;20032;-76
2022/11/05 01:35:45;;;;;;;55.38;29.88;;;;;;;12.15;65.86;94739.75;5056784;28;20017;-76
2022/11/05 01:38:10;;;;;;;56.17;29.13;;;;;;;12.15;65.77;94731.00;5038465;28;20067;-76
2022/11/05 01:40:36;;;;;;;49.75;26.75;;;;;;;12.52;65.64;94796.53;5063814;28;20401;-76
2022/11/05 01:43:01;;;;;;;45.38;26.77;;;;;;;12.53;65.74;94798.91;5046849;28;20029;-76
2022/11/05 01:45:27;;;;;;;54.38;27.77;;;;;;;12.49;65.58;94794.47;5039476;28;20550;-76
2022/11/05 01:48:07;;;;;;;48.15;26.45;;;;;;;12.10;65.32;94715.16;5032418;28;20419;-77
2022/11/05 01:50:37;;;;;;;50.05;27.63;;;;;;;12.40;65.53;94785.59;5045215;28;20060;-76
2022/11/05 01:53:12;;;;;;;61.35;29.23;;;;;;;11.97;65.94;94730.78;5051947;28;20036;-76
2022/11/05 01:55:43;;;;;;;51.53;28.00;;;;;;;12.22;65.86;94753.47;5061836;28;20037;-76
2022/11/05 01:58:12;;;;;;;59.05;29.67;;;;;;;12.20;66.26;94752.97;5069940;28;20034;-76
2022/11/05 02:00:39;;;;;;;52.33;27.67;;;;;;;12.29;66.24;94758.38;5051896;28;20025;-76
2022/11/05 02:03:06;;;;;;;55.13;29.20;;;;;;;11.87;65.81;94695.63;5070113;28;20078;-76
2022/11/05 02:05:32;;;;;;;53.92;28.35;;;;;;;11.85;65.97;94690.59;5057425;28;20262;-76
2022/11/05 02:07:58;;;;;;;55.67;28.55;;;;;;;12.19;66.52;94763.91;5060488;28;20025;-77
2022/11/05 02:10:25;;;;;;;54.75;28.30;;;;;;;12.16;66.18;94746.66;5060856;28;20056;-76
2022/11/05 02:12:50;;;;;;;51.90;28.90;;;;;;;11.68;66.27;94671.75;5070541;28;20025;-77
2022/11/05 02:15:25;;;;;;;49.47;28.02;;;;;;;12.09;65.68;94737.50;5068502;28;20029;-77
2022/11/05 02:18:06;;;;;;;55.67;29.40;;;;;;;12.27;66.19;94772.00;5067195;28;20131;-77
2022/11/05 02:20:45;;;;;;;73.78;29.17;;;;;;;11.92;66.07;94736.19;5069514;28;20086;-77
2022/11/05 02:23:51;;;;;;;58.22;29.33;;;;;;;11.80;66.74;94732.41;5065161;28;20044;-77
2022/11/05 02:26:38;;;;;;;56.45;28.70;;;;;;;12.06;66.88;94770.75;5020216;28;20053;-77
2022/11/05 02:29:31;;;;;;;50.22;28.58;;;;;;;12.04;66.56;94766.81;5054920;28;20136;-77
2022/11/05 02:32:01;;;;;;;54.00;27.90;;;;;;;11.71;66.88;94718.97;5036858;28;20406;-77
2022/11/05 02:34:48;;;;;;;55.78;28.33;;;;;;;11.56;67.61;94712.06;5027576;28;20111;-77
2022/11/05 02:37:18;;;;;;;53.90;29.10;;;;;;;11.70;67.39;94724.56;5038354;28;20119;-77
2022/11/05 02:39:57;;;;;;;62.72;29.92;;;;;;;12.06;66.90;94770.75;5055726;28;20024;-77
2022/11/05 02:42:42;;;;;;;59.50;29.67;;;;;;;11.76;66.73;94710.94;5055565;28;20029;-77
2022/11/05 02:45:32;;;;;;;61.65;30.15;;;;;;;12.11;66.68;94765.38;5054753;28;20056;-77
2022/11/05 02:48:10;;;;;;;52.80;28.30;;;;;;;12.16;66.50;94764.47;5055817;28;20091;-76
2022/11/05 02:50:46;;;;;;;56.00;29.02;;;;;;;12.11;66.44;94752.06;5058203;28;20482;-76
2022/11/05 02:53:31;;;;;;;54.85;29.15;;;;;;;12.14;66.58;94767.41;5068136;28;20012;-76
2022/11/05 02:56:04;;;;;;;57.30;28.17;;;;;;;11.92;66.23;94756.66;5041381;28;20032;-76
2022/11/05 02:58:32;;;;;;;55.13;29.58;;;;;;;11.92;66.73;94757.44;5059242;28;20032;-76
2022/11/05 03:00:59;;;;;;;60.67;29.27;;;;;;;11.83;66.69;94739.78;5059395;28;20033;-76
2022/11/05 03:03:27;;;;;;;59.75;30.30;;;;;;;12.08;66.78;94776.56;5060346;28;20079;-76
2022/11/05 03:06:16;;;;;;;57.13;29.58;;;;;;;12.05;66.78;94769.19;5042191;28;20112;-77
2022/11/05 03:09:18;;;;;;;54.42;27.98;;;;;;;12.04;66.67;94772.16;5047326;28;20051;-76
2022/11/05 03:12:02;;;;;;;54.03;27.30;;;;;;;12.01;66.32;94768.19;5059451;28;20071;-76
2022/11/05 03:15:00;;;;;;;52.22;30.27;;;;;;;11.40;67.03;94715.22;5059923;28;20089;-78
2022/11/05 03:17:50;;;;;;;57.10;30.27;;;;;;;11.75;66.86;94767.81;5060347;28;20063;-79
2022/11/05 03:20:25;;;;;;;56.30;29.75;;;;;;;11.59;68.69;94767.22;5061818;28;20024;-77
2022/11/05 03:22:59;;;;;;;56.10;28.20;;;;;;;11.72;68.26;94770.25;5061065;28;20532;-75
2022/11/05 03:25:26;;;;;;;57.03;28.77;;;;;;;11.10;68.07;94680.13;5058371;28;20061;-75
2022/11/05 03:27:57;;;;;;;57.17;30.55;;;;;;;11.71;67.91;94782.72;5045342;28;20076;-75
2022/11/05 03:30:24;;;;;;;66.30;29.70;;;;;;;11.70;68.03;94783.00;5031892;28;20454;-76
2022/11/05 03:33:00;;;;;;;55.35;29.67;;;;;;;11.73;67.46;94777.94;5052653;28;20123;-75
2022/11/05 03:35:30;;;;;;;57.58;29.58;;;;;;;11.59;68.05;94763.81;5036762;28;20092;-75
2022/11/05 03:38:02;;;;;;;54.45;29.25;;;;;;;11.75;68.00;94790.97;5038302;28;20037;-75
2022/11/05 03:40:32;;;;;;;59.72;31.20;;;;;;;11.18;67.52;94700.69;5065200;28;20503;-75
2022/11/05 03:43:00;;;;;;;52.67;30.30;;;;;;;11.42;67.54;94745.75;5071918;28;20037;-75
2022/11/05 03:45:41;;;;;;;50.65;29.83;;;;;;;11.85;67.02;94801.41;5054358;28;20029;-75
2022/11/05 03:48:10;;;;;;;66.40;29.98;;;;;;;11.34;67.82;94743.72;5050043;28;20115;-75
2022/11/05 03:50:52;;;;;;;60.33;29.35;;;;;;;11.60;68.17;94786.59;5058069;28;20024;-75
2022/11/05 03:53:22;;;;;;;55.70;29.48;;;;;;;11.76;67.93;94805.78;5056075;28;20123;-75
2022/11/05 03:55:59;;;;;;;53.10;30.17;;;;;;;11.68;68.20;94807.19;5052073;28;20047;-75
2022/11/05 03:58:25;;;;;;;55.75;31.50;;;;;;;11.72;68.00;94804.78;5049768;28;20099;-75
2022/11/05 04:00:51;;;;;;;52.47;30.02;;;;;;;11.51;67.57;94764.47;5071727;28;20044;-75
2022/11/05 04:03:16;;;;;;;61.85;30.60;;;;;;;11.54;67.62;94771.84;5052982;28;20043;-75
2022/11/05 04:05:42;;;;;;;56.10;31.48;;;;;;;11.11;67.69;94716.19;5072080;28;20032;-75
2022/11/05 04:13:36;;;;;;;54.05;30.42;;;;;;;11.25;68.27;94736.69;5072195;28;20521;-75
2022/11/05 04:18:46;;;;;;;61.63;30.55;;;;;;;11.81;68.28;94811.03;5072283;28;20409;-75
2022/11/05 04:24:08;;;;;;;58.00;30.85;;;;;;;11.85;67.65;94812.81;5070266;28;20137;-75
2022/11/05 04:26:38;;;;;;;50.30;30.75;;;;;;;11.88;67.50;94816.78;5045170;28;20131;-75
2022/11/05 04:31:48;;;;;;;57.20;29.83;;;;;;;11.92;67.81;94831.03;5050985;28;20035;-75
2022/11/05 04:34:15;;;;;;;55.67;31.27;;;;;;;11.56;67.74;94781.09;5051576;28;20040;-75
2022/11/05 04:36:41;;;;;;;58.50;31.85;;;;;;;11.93;67.23;94829.97;5051426;28;20036;-75
2022/11/05 04:39:06;;;;;;;62.15;31.40;;;;;;;11.51;67.35;94767.13;5051539;28;20375;-75
2022/11/05 04:41:31;;;;;;;57.35;29.95;;;;;;;11.54;67.32;94775.28;5050318;28;20029;-75
2022/11/05 04:43:57;;;;;;;64.13;31.20;;;;;;;11.97;67.15;94842.41;5050980;28;20037;-75
2022/11/05 04:46:22;;;;;;;62.40;30.00;;;;;;;11.95;67.29;94849.88;5051435;28;20036;-75
2022/11/05 04:48:47;;;;;;;57.35;29.83;;;;;;;11.90;67.52;94836.66;5051266;28;20064;-75
2022/11/05 04:51:13;;;;;;;63.70;30.98;;;;;;;11.77;67.60;94807.38;5050851;28;20036;-75
2022/11/05 04:53:38;;;;;;;67.63;31.30;;;;;;;11.98;67.24;94840.50;5051178;28;20466;-75
2022/11/05 04:56:18;;;;;;;57.55;30.85;;;;;;;11.90;67.67;94827.91;5033202;28;20094;-75
2022/11/05 04:58:44;;;;;;;58.67;31.63;;;;;;;11.73;67.50;94806.34;5051182;28;20759;-75
2022/11/05 05:01:16;;;;;;;64.60;31.13;;;;;;;11.98;67.10;94824.56;5026272;28;20034;-75
2022/11/05 05:03:42;;;;;;;60.30;29.70;;;;;;;11.21;67.27;94724.00;5021160;28;20033;-75
2022/11/05 05:06:07;;;;;;;63.05;31.67;;;;;;;11.92;67.60;94831.84;5050773;28;20083;-75
2022/11/05 05:08:33;;;;;;;60.30;29.98;;;;;;;11.77;67.36;94831.28;5020949;28;20029;-75
2022/11/05 05:11:06;;;;;;;57.42;30.60;;;;;;;11.85;67.93;94842.06;5022202;28;20029;-75
2022/11/05 05:13:32;;;;;;;59.95;32.63;;;;;;;11.76;67.82;94827.84;5053839;28;20032;-75
2022/11/05 05:15:57;;;;;;;65.60;32.95;;;;;;;11.66;67.75;94819.22;5035619;28;20029;-75
2022/11/05 05:18:25;;;;;;;64.90;31.15;;;;;;;11.45;68.10;94789.50;5048465;28;20684;-76
2022/11/05 05:23:35;;;;;;;63.00;32.58;;;;;;;11.58;68.06;94826.75;5050303;28;20692;-75
2022/11/05 05:26:00;;;;;;;57.75;33.05;;;;;;;11.89;68.33;94863.53;5034542;28;20049;-75
2022/11/05 05:28:27;;;;;;;66.20;33.10;;;;;;;11.75;68.41;94844.84;5070813;28;20039;-75
2022/11/05 05:30:52;;;;;;;56.15;32.22;;;;;;;11.70;68.49;94839.59;5044437;28;20072;-75
2022/11/05 05:33:18;;;;;;;56.13;30.65;;;;;;;11.96;68.24;94872.72;5058481;28;20499;-75
2022/11/05 05:35:43;;;;;;;70.25;32.13;;;;;;;11.98;67.90;94881.16;5070244;28;20086;-75
2022/11/05 05:38:08;;;;;;;54.75;31.95;;;;;;;11.37;68.05;94798.88;5070697;28;20103;-75
2022/11/05 05:40:34;;;;;;;63.85;32.35;;;;;;;11.88;67.87;94862.75;5057253;28;20066;-75
2022/11/05 05:42:59;;;;;;;76.90;34.22;;;;;;;11.92;68.33;94887.66;5039456;28;20044;-75
2022/11/05 05:45:26;;;;;;;69.30;33.35;;;;;;;11.70;68.96;94874.13;5050234;28;20533;-75
2022/11/05 05:47:54;;;;;;;67.18;34.25;;;;;;;11.77;68.17;94863.16;5065512;28;20033;-75
2022/11/05 05:50:20;;;;;;;64.10;33.60;;;;;;;11.56;68.20;94812.19;5047615;28;20112;-75
2022/11/05 05:52:45;;;;;;;71.03;35.08;;;;;;;11.86;68.03;94854.25;5049408;28;20037;-75
2022/11/05 05:55:11;;;;;;;65.00;33.70;;;;;;;12.18;67.86;94898.69;5069067;28;20040;-75
2022/11/05 05:57:37;;;;;;;71.18;34.08;;;;;;;11.55;67.53;94792.00;5051677;28;20483;-75
2022/11/05 06:00:04;;;;;;;65.78;33.55;;;;;;;12.30;67.55;94892.91;5051815;28;20029;-75
2022/11/05 06:02:30;;;;;;;66.32;34.03;;;;;;;12.28;67.64;94887.88;5070160;28;20559;-75
2022/11/05 06:04:56;;;;;;;72.78;34.03;;;;;;;12.40;67.27;94900.72;5046085;28;20033;-75
2022/11/05 06:07:21;;;;;;;64.97;34.33;;;;;;;12.31;67.18;94873.22;5047535;28;20094;-75
2022/11/05 06:09:46;;;;;;;70.07;34.45;;;;;;;12.14;67.24;94841.84;5070005;28;20032;-75
2022/11/05 06:12:12;;;;;;;67.45;33.78;;;;;;;12.33;66.89;94857.78;5042542;28;20017;-75
2022/11/05 06:14:37;;;;;;;72.13;33.55;;;;;;;12.46;67.33;94867.66;5049755;28;20406;-75
2022/11/05 06:17:03;;;;;;;68.28;35.03;;;;;;;12.65;66.96;94889.66;5044679;28;20107;-75
2022/11/05 06:19:28;;;;;;;61.50;33.05;;;;;;;12.69;66.92;94893.31;5038796;28;20569;-75
2022/11/05 06:21:53;;;;;;;66.35;33.15;;;;;;;11.88;66.55;94748.47;5038979;28;20421;-75
2022/11/05 06:24:19;;;;;;;62.63;33.97;;;;;;;12.75;66.70;94886.81;5053864;28;20110;-75
2022/11/05 06:26:44;;;;;;;77.22;34.13;;;;;;;12.79;66.61;94896.88;5046559;28;20041;-75
2022/11/05 06:29:10;;;;;;;73.43;33.83;;;;;;;12.87;66.55;94901.53;5066380;28;20477;-75
2022/11/05 06:31:35;;;;;;;67.15;33.65;;;;;;;12.54;66.66;94843.03;5077981;28;20463;-77
2022/11/05 06:34:01;;;;;;;58.40;31.45;;;;;;;12.27;66.24;94795.13;5054317;28;20040;-75
2022/11/05 06:36:27;;;;;;;67.22;33.67;;;;;;;12.91;66.49;94874.03;5053039;28;20032;-75
2022/11/05 06:38:52;;;;;;;65.57;33.88;;;;;;;13.09;66.13;94894.44;5055767;28;20040;-75
2022/11/05 06:41:17;;;;;;;60.20;32.22;;;;;;;13.09;66.57;94891.00;5073697;28;20059;-74
2022/11/05 06:43:43;;;;;;;59.20;32.72;;;;;;;13.13;66.24;94886.66;5073644;28;20040;-73
2022/11/05 06:46:10;;;;;;;59.22;32.25;;;;;;;13.20;65.72;94891.63;5073949;28;20546;-74
2022/11/05 06:48:35;;;;;;;56.78;31.10;;;;;;;12.92;65.83;94830.34;5055735;28;20060;-74
2022/11/05 06:51:02;;;;;;;59.97;32.60;;;;;;;12.82;65.48;94814.56;5056161;28;20066;-73
2022/11/05 06:53:27;;;;;;;94.72;35.20;;;;;;;13.31;65.65;94880.47;5074095;28;20444;-74
2022/11/05 06:55:53;;;;;;;63.40;34.70;;;;;;;13.06;65.58;94847.09;5073685;28;20057;-75
2022/11/05 06:58:19;;;;;;;68.35;37.10;;;;;;;13.26;65.55;94859.28;5080960;28;20044;-75
2022/11/05 07:00:44;;;;;;;64.53;34.95;;;;;;;13.14;65.27;94821.69;5059819;28;20037;-75
2022/11/05 07:03:11;;;;;;;65.55;36.17;;;;;;;13.45;65.15;94873.25;5073876;28;20086;-75
2022/11/05 07:05:41;;;;;;;67.97;36.60;;;;;;;13.36;64.97;94842.28;5039602;28;20033;-75
2022/11/05 07:08:06;;;;;;;65.72;34.60;;;;;;;13.24;64.92;94821.50;5054038;28;20036;-75
2022/11/05 07:10:32;;;;;;;68.05;35.00;;;;;;;13.39;64.69;94826.50;5080081;28;20040;-76
2022/11/05 07:12:57;;;;;;;66.90;34.22;;;;;;;13.57;64.18;94847.97;5047992;28;20040;-75
2022/11/05 07:15:22;;;;;;;58.40;31.63;;;;;;;13.52;64.75;94860.31;5056709;28;20402;-75
2022/11/05 07:17:48;;;;;;;56.83;30.98;;;;;;;13.30;64.26;94806.19;5072976;28;20036;-75
2022/11/05 07:20:16;;;;;;;57.08;28.90;;;;;;;13.50;63.74;94829.75;5072813;28;20158;-75
2022/11/05 07:22:42;;;;;;;67.88;32.25;;;;;;;13.63;63.86;94834.25;5049911;28;20098;-76
2022/11/05 07:25:08;;;;;;;57.85;31.92;;;;;;;13.65;63.33;94826.75;5065310;28;20061;-73
2022/11/05 07:27:38;;;;;;;60.22;30.48;;;;;;;14.00;63.19;94857.13;5040229;28;20044;-73
2022/11/05 07:30:07;;;;;;;64.77;33.30;;;;;;;13.13;62.99;94709.06;5063975;28;20036;-73
2022/11/05 07:32:37;;;;;;;64.60;35.25;;;;;;;14.12;62.83;94860.00;5053950;28;20299;-74
2022/11/05 07:35:02;;;;;;;69.07;34.38;;;;;;;14.18;63.03;94856.16;5067837;28;20656;-76
2022/11/05 07:37:28;;;;;;;65.65;35.15;;;;;;;14.32;62.81;94861.44;5070671;28;20063;-73
2022/11/05 07:39:53;;;;;;;66.82;34.13;;;;;;;14.17;62.23;94816.47;5070634;28;20041;-74
2022/11/05 07:42:19;;;;;;;62.45;33.95;;;;;;;13.90;62.14;94764.84;5075699;28;20159;-74
2022/11/05 07:44:44;;;;;;;64.32;35.17;;;;;;;14.43;61.95;94846.75;5044744;28;20051;-74
2022/11/05 07:47:09;;;;;;;61.13;31.10;;;;;;;14.54;61.86;94815.28;5069353;28;20032;-74
2022/11/05 07:49:35;;;;;;;63.08;32.78;;;;;;;14.18;61.36;94796.69;5076543;28;20040;-74
2022/11/05 07:52:00;;;;;;;63.90;32.97;;;;;;;14.41;61.45;94821.50;5070774;28;20548;-74
2022/11/05 07:54:26;;;;;;;58.17;32.05;;;;;;;14.55;60.79;94814.19;5057371;28;20128;-74
2022/11/05 07:56:51;;;;;;;55.45;28.90;;;;;;;14.47;60.80;94797.03;5067330;28;20124;-74
2022/11/05 07:59:17;;;;;;;52.72;28.27;;;;;;;14.41;60.74;94784.16;5071108;28;20099;-74
2022/11/05 08:01:42;;;;;;;49.85;28.48;;;;;;;14.60;60.12;94788.16;5071418;28;20086;-74
2022/11/05 08:04:08;;;;;;;52.97;29.67;;;;;;;14.53;60.23;94769.13;5071663;28;20060;-74
2022/11/05 08:06:33;;;;;;;50.10;26.92;;;;;;;14.86;59.67;94832.84;5045547;28;20059;-75
2022/11/05 08:08:58;;;;;;;54.33;28.17;;;;;;;14.93;59.58;94828.66;5073897;28;20043;-74
2022/11/05 08:11:24;;;;;;;48.60;26.85;;;;;;;15.00;59.13;94820.97;5053973;28;20035;-75
2022/11/05 08:13:49;;;;;;;47.08;25.85;;;;;;;15.13;59.21;94826.50;5048221;28;20033;-73
2022/11/05 08:16:14;;;;;;;47.08;25.90;;;;;;;14.73;59.67;94777.66;5066532;28;20166;-74
2022/11/05 08:18:40;;;;;;;50.10;26.95;;;;;;;15.17;59.69;94820.25;5069206;28;20115;-74
2022/11/05 08:21:06;;;;;;;57.10;28.67;;;;;;;14.95;59.96;94794.38;5069217;28;20028;-75
2022/11/05 08:23:31;;;;;;;47.25;26.92;;;;;;;14.91;60.04;94765.97;5065753;28;20028;-75
2022/11/05 08:25:57;;;;;;;47.72;26.80;;;;;;;15.22;60.06;94822.75;5052136;28;20048;-75
2022/11/05 08:28:24;;;;;;;51.78;28.90;;;;;;;15.29;59.88;94803.59;5074626;28;20036;-75
2022/11/05 08:30:52;;;;;;;57.35;28.83;;;;;;;15.38;59.86;94823.91;5059862;28;20037;-75
2022/11/05 08:33:19;;;;;;;56.25;28.30;;;;;;;15.51;59.56;94824.84;5053007;28;20386;-75
2022/11/05 08:35:45;;;;;;;53.05;29.48;;;;;;;15.19;59.63;94769.94;5070371;28;20055;-75
2022/11/05 08:38:14;;;;;;;49.05;27.85;;;;;;;15.30;59.37;94763.22;5071116;28;20111;-75
2022/11/05 08:40:41;;;;;;;52.80;28.85;;;;;;;15.64;59.12;94805.22;5052633;28;20127;-76
2022/11/05 08:43:08;;;;;;;56.10;27.15;;;;;;;15.50;58.70;94769.81;5048844;28;20082;-75
2022/11/05 08:45:35;;;;;;;49.92;25.77;;;;;;;15.73;58.91;94791.88;5061464;28;20033;-75
2022/11/05 08:48:13;;;;;;;51.92;27.40;;;;;;;15.99;58.36;94802.56;5064510;28;20040;-75
2022/11/05 08:50:39;;;;;;;47.97;25.75;;;;;;;15.88;58.31;94761.97;5069939;28;20125;-75
2022/11/05 08:53:05;;;;;;;50.35;27.08;;;;;;;16.01;56.71;94790.47;5060526;28;20437;-75
2022/11/05 08:55:31;;;;;;;41.05;23.05;;;;;;;15.91;56.99;94753.34;5072150;28;20173;-75
2022/11/05 08:57:58;;;;;;;48.40;22.90;;;;;;;16.34;56.12;94804.06;5076107;28;20043;-75
2022/11/05 09:00:24;;;;;;;46.65;22.92;;;;;;;16.34;55.73;94782.66;5067406;28;20032;-75
2022/11/05 09:02:50;;;;;;;43.65;22.52;;;;;;;16.18;55.00;94749.50;5040945;28;20411;-75
2022/11/05 09:05:15;;;;;;;44.83;22.73;;;;;;;16.49;54.98;94778.69;5049382;28;20032;-75
2022/11/05 09:07:41;;;;;;;41.85;23.42;;;;;;;16.64;54.99;94794.25;5054243;28;20102;-76
2022/11/05 09:10:06;;;;;;;37.67;20.88;;;;;;;16.26;54.21;94734.53;5066936;28;20332;-76
2022/11/05 09:12:32;;;;;;;42.67;22.23;;;;;;;16.43;53.77;94769.28;5069888;28;20460;-75
2022/11/05 09:14:57;;;;;;;42.72;20.35;;;;;;;16.64;53.88;94786.22;5069150;28;20469;-75
2022/11/05 09:17:23;;;;;;;34.15;18.95;;;;;;;16.56;53.65;94774.41;5068642;28;20398;-75
2022/11/05 09:19:48;;;;;;;34.97;21.02;;;;;;;16.54;53.98;94759.81;5069055;28;20036;-75
2022/11/05 09:22:14;;;;;;;39.45;21.35;;;;;;;16.59;53.77;94751.59;5071173;28;20044;-75
2022/11/05 09:24:40;;;;;;;41.55;20.50;;;;;;;16.71;53.43;94753.59;5050581;28;20053;-75
2022/11/05 09:27:17;;;;;;;35.05;20.30;;;;;;;17.03;53.16;94790.47;5068988;28;20501;-75
2022/11/05 09:29:43;;;;;;;40.83;22.08;;;;;;;16.70;52.18;94768.13;5068860;28;20102;-75
2022/11/05 09:32:08;;;;;;;53.15;22.00;;;;;;;16.79;52.49;94791.06;5071563;28;20044;-75
2022/11/05 09:34:35;;;;;;;43.95;20.80;;;;;;;16.59;51.92;94720.25;5048860;28;20110;-76
2022/11/05 09:37:01;;;;;;;38.92;19.95;;;;;;;16.92;51.27;94757.94;5065892;28;20832;-75
2022/11/05 09:39:27;;;;;;;39.30;19.65;;;;;;;16.94;51.51;94744.97;5068490;28;20068;-74
2022/11/05 09:41:58;;;;;;;44.55;18.35;;;;;;;17.04;51.70;94743.84;5049841;28;20131;-75
2022/11/05 09:44:36;;;;;;;37.67;18.75;;;;;;;17.00;51.09;94736.78;5059778;28;20082;-74
2022/11/05 09:47:06;;;;;;;33.95;18.27;;;;;;;17.18;50.50;94747.06;5049665;28;20101;-74
2022/11/05 09:49:34;;;;;;;33.70;18.45;;;;;;;17.44;50.67;94779.06;5065097;28;20113;-74
2022/11/05 09:52:01;;;;;;;33.42;18.90;;;;;;;17.58;50.70;94773.44;5047289;28;20075;-75
2022/11/05 09:54:30;;;;;;;36.22;18.70;;;;;;;17.58;49.77;94738.56;5051525;28;20040;-74
2022/11/05 09:56:58;;;;;;;37.80;17.33;;;;;;;17.88;48.51;94761.53;5065360;28;20029;-74
2022/11/05 09:59:29;;;;;;;31.55;17.10;;;;;;;18.07;48.31;94761.84;5046527;28;20483;-74
2022/11/05 10:02:11;;;;;;;34.40;16.05;;;;;;;18.27;47.78;94764.81;5053439;28;20120;-74
2022/11/05 10:04:37;;;;;;;;;;;;;;;18.37;47.18;94757.13;5049125;28;20036;-74
2022/11/05 10:07:06;;;;;;;31.75;16.17;;;;;;;18.01;46.78;94714.06;5049533;28;20625;-74
2022/11/05 10:09:44;;;;;;;43.33;18.52;;;;;;;18.69;46.39;94758.19;5064755;28;20439;-74
2022/11/05 10:12:19;;;;;;;40.42;16.98;;;;;;;19.00;45.66;94764.91;5038699;28;20119;-74
2022/11/05 10:14:51;;;;;;;39.25;17.95;;;;;;;19.26;44.73;94755.41;5058653;28;20043;-75
2022/11/05 10:17:27;;;;;;;35.30;16.95;;;;;;;19.01;44.19;94692.03;5039502;28;20041;-74
2022/11/05 10:19:52;;;;;;;28.42;15.30;;;;;;;19.49;43.73;94746.88;5067573;28;20474;-74
2022/11/05 10:22:18;;;;;;;30.17;16.50;;;;;;;19.52;43.61;94749.69;5048711;28;20040;-74
2022/11/05 10:24:46;;;;;;;35.78;17.42;;;;;;;19.23;43.65;94715.75;5052127;28;20076;-74
2022/11/05 10:27:17;;;;;;;32.05;17.10;;;;;;;19.21;44.23;94744.88;5068441;28;20043;-75
2022/11/05 10:29:42;;;;;;;36.67;16.95;;;;;;;19.18;44.01;94739.41;5049570;28;20061;-74
2022/11/05 10:32:14;;;;;;;36.63;15.90;;;;;;;19.24;44.05;94744.19;5033544;28;20060;-74
2022/11/05 10:34:41;;;;;;;33.00;17.13;;;;;;;19.23;44.22;94747.22;5069661;28;20108;-74
2022/11/05 10:37:08;;;;;;;33.85;16.50;;;;;;;19.03;44.28;94734.72;5050352;28;20108;-74
2022/11/05 10:39:33;;;;;;;39.33;17.05;;;;;;;19.09;44.31;94738.72;5069446;28;20020;-74
2022/11/05 10:42:38;;;;;;;26.45;16.13;;;;;;;18.99;44.14;94741.88;5067865;28;20111;-74
2022/11/05 10:45:30;;;;;;;32.35;17.83;;;;;;;18.88;44.05;94745.00;5068982;28;20024;-74
2022/11/05 10:48:14;;;;;;;41.63;17.13;;;;;;;18.94;44.14;94740.19;5044922;28;20514;-75
2022/11/05 10:50:40;;;;;;;32.95;15.68;;;;;;;18.97;44.79;94736.06;5038949;28;20029;-74
2022/11/05 10:53:15;;;;;;;33.13;16.25;;;;;;;19.03;44.68;94737.38;5068685;28;20028;-75
2022/11/05 10:55:44;;;;;;;33.63;16.48;;;;;;;19.12;44.14;94730.00;5040297;28;20111;-76
2022/11/05 10:58:26;;;;;;;32.00;16.20;;;;;;;19.12;43.65;94730.78;5055392;28;20060;-76
2022/11/05 11:00:51;;;;;;;28.33;15.75;;;;;;;19.21;43.46;94726.06;5052527;28;20032;-74
2022/11/05 11:03:41;;;;;;;34.00;16.35;;;;;;;19.18;43.54;94725.94;5059071;28;20032;-73
2022/11/05 11:06:26;;;;;;;35.67;15.05;;;;;;;19.27;43.84;94727.41;5045437;28;20112;-75
2022/11/05 11:08:55;;;;;;;32.60;16.52;;;;;;;19.34;43.51;94724.13;5031542;28;20064;-75
2022/11/05 11:11:26;;;;;;;34.10;16.17;;;;;;;19.06;43.82;94678.38;5037217;28;20091;-75
2022/11/05 11:14:16;;;;;;;32.75;16.90;;;;;;;19.27;43.64;94692.44;5066785;28;20032;-75
2022/11/05 11:16:47;;;;;;;31.92;15.60;;;;;;;19.15;43.51;94683.63;5040595;28;20033;-75
2022/11/05 11:19:32;;;;;;;29.58;16.15;;;;;;;19.38;43.22;94716.16;5072921;28;20044;-75
2022/11/05 11:22:04;;;;;;;38.38;15.07;;;;;;;19.38;43.09;94718.84;5052009;28;20034;-76
2022/11/05 11:24:36;;;;;;;32.47;15.05;;;;;;;19.38;43.30;94713.47;5072322;28;20029;-76
2022/11/05 11:27:04;;;;;;;27.10;14.80;;;;;;;19.30;42.96;94690.97;5047620;28;20112;-76
2022/11/05 11:29:34;;;;;;;27.25;15.60;;;;;;;19.13;43.02;94665.16;5059459;28;20028;-76
2022/11/05 11:32:01;;;;;;;28.63;14.93;;;;;;;19.39;43.09;94705.06;5034715;28;20029;-76
2022/11/05 11:34:30;;;;;;;29.58;15.88;;;;;;;19.19;43.19;94690.69;5051521;28;20032;-76
2022/11/05 11:37:08;;;;;;;28.05;15.45;;;;;;;19.13;43.03;94686.66;5069800;28;20059;-76
2022/11/05 11:39:35;;;;;;;30.98;15.52;;;;;;;19.04;43.21;94679.84;5071868;28;20123;-75
2022/11/05 11:42:10;;;;;;;32.97;16.58;;;;;;;18.95;43.29;94674.59;5067283;28;20029;-76
2022/11/05 11:44:41;;;;;;;23.42;14.68;;;;;;;19.14;43.33;94693.59;5064408;28;20051;-76
2022/11/05 11:47:14;;;;;;;26.05;14.35;;;;;;;19.18;43.12;94712.50;5070367;28;20028;-76
2022/11/05 11:49:56;;;;;;;31.20;15.70;;;;;;;19.13;42.82;94704.69;5072385;28;20032;-76
2022/11/05 11:52:34;;;;;;;25.08;14.50;;;;;;;19.08;42.78;94712.97;5071272;28;20028;-77
2022/11/05 11:55:11;;;;;;;33.47;15.70;;;;;;;19.00;42.52;94705.81;5050926;28;20036;-76
2022/11/05 11:57:52;;;;;;;26.75;14.38;;;;;;;18.73;42.16;94664.31;5061871;28;20036;-75
2022/11/05 12:00:22;;;;;;;27.27;14.27;;;;;;;18.57;42.06;94653.47;5073233;28;20115;-76
2022/11/05 12:03:15;;;;;;;28.13;13.77;;;;;;;18.89;42.34;94694.75;5055333;28;20075;-76
2022/11/05 12:05:50;;;;;;;27.83;14.63;;;;;;;18.41;42.87;94625.69;5072365;28;20036;-76
2022/11/05 12:09:10;;;;;;;31.35;14.25;;;;;;;18.55;43.75;94671.00;5072765;28;20498;-76